Time;durP1;ratioP1;P1;durP2;ratioP2;P2;SDS_P1;SDS_P2;PMS_P1;PMS_P2;Temp;Humidity;BMP_temperature;BMP_pressure;BME280_temperature;BME280_humidity;BME280_pressure;Samples;Min_cycle;Max_cycle;Signal;HPM_P1;HPM_P2
2022/01/05 00:02:15;;;;;;;254.38;160.45;;;179.70;2252.80;;;;;;4912051;29;20050;-85
2022/01/05 00:04:41;;;;;;;336.45;201.10;;;179.60;2252.80;;;;;;4920626;29;20046;-85
2022/01/05 00:07:07;;;;;;;309.33;189.77;;;179.60;2252.80;;;;;;4920650;29;20019;-85
2022/01/05 00:09:36;;;;;;;278.30;187.18;;;179.60;2252.80;;;;;;4920649;29;20023;-84
2022/01/05 00:12:02;;;;;;;277.73;179.00;;;179.70;2252.80;;;;;;4920474;29;20055;-84
2022/01/05 00:14:28;;;;;;;268.10;176.63;;;179.60;2252.80;;;;;;4920843;29;20028;-84
2022/01/05 00:16:53;;;;;;;244.75;157.82;;;179.60;2252.80;;;;;;4920336;29;20031;-83
2022/01/05 00:19:19;;;;;;;245.38;166.48;;;179.50;2252.80;;;;;;4920632;29;20035;-85
2022/01/05 00:21:45;;;;;;;220.02;146.35;;;179.60;2252.80;;;;;;4920464;29;20024;-83
2022/01/05 00:24:11;;;;;;;258.90;157.95;;;179.60;2252.80;;;;;;4920203;29;20031;-87
2022/01/05 00:26:37;;;;;;;236.98;150.52;;;179.40;2252.80;;;;;;4920159;29;20083;-84
2022/01/05 00:29:03;;;;;;;219.73;142.52;;;179.40;2252.80;;;;;;4920455;29;20019;-84
2022/01/05 00:31:29;;;;;;;217.10;142.50;;;179.30;2252.80;;;;;;4920095;29;20044;-83
2022/01/05 00:33:55;;;;;;;249.35;155.07;;;179.20;2252.80;;;;;;4920469;29;20035;-85
2022/01/05 00:36:21;;;;;;;293.05;173.38;;;179.20;2252.80;;;;;;4920211;29;20058;-86
2022/01/05 00:38:47;;;;;;;286.15;169.35;;;179.20;2252.80;;;;;;4919390;29;20059;-85
2022/01/05 00:41:14;;;;;;;352.58;189.07;;;179.40;2252.80;;;;;;4920310;29;20058;-86
2022/01/05 00:43:40;;;;;;;339.00;181.43;;;179.60;2252.80;;;;;;4920348;29;20047;-85
2022/01/05 00:46:06;;;;;;;250.13;140.35;;;179.40;2252.80;;;;;;4920226;29;20034;-86
2022/01/05 00:48:35;;;;;;;188.85;111.32;;;179.70;2252.80;;;;;;4920111;29;20424;-86
2022/01/05 00:51:06;;;;;;;314.77;166.10;;;179.70;2252.80;;;;;;4920073;29;20375;-84
2022/01/05 00:53:33;;;;;;;237.43;124.72;;;179.80;2252.80;;;;;;4920374;29;20032;-83
2022/01/05 00:56:00;;;;;;;166.80;89.57;;;179.80;2252.80;;;;;;4920549;29;20118;-84
2022/01/05 00:58:26;;;;;;;185.57;98.80;;;179.90;2252.80;;;;;;4920070;29;20026;-84
2022/01/05 01:00:51;;;;;;;208.68;109.90;;;179.90;2252.80;;;;;;4920071;29;20047;-86
2022/01/05 01:03:17;;;;;;;148.80;87.63;;;179.80;2252.80;;;;;;4920014;29;20345;-83
2022/01/05 01:05:43;;;;;;;131.05;81.82;;;179.80;2252.80;;;;;;4919782;29;20027;-84
2022/01/05 01:08:10;;;;;;;138.02;82.60;;;179.70;2252.80;;;;;;4921779;28;20424;-85
2022/01/05 01:10:36;;;;;;;177.73;102.80;;;179.90;2252.80;;;;;;4944190;28;20026;-85
2022/01/05 01:13:02;;;;;;;155.48;92.80;;;179.90;2252.80;;;;;;4935431;29;20146;-83
2022/01/05 01:15:28;;;;;;;143.13;84.40;;;179.90;2252.80;;;;;;4919980;29;20025;-84
2022/01/05 01:17:54;;;;;;;129.80;83.63;;;179.70;2252.80;;;;;;4917630;29;20027;-83
2022/01/05 01:20:20;;;;;;;112.93;75.93;;;179.70;2252.80;;;;;;4916689;29;20471;-83
2022/01/05 01:22:47;;;;;;;130.40;87.88;;;179.70;2252.80;;;;;;4916782;29;20028;-83
2022/01/05 01:25:13;;;;;;;128.75;83.82;;;179.40;2252.80;;;;;;4917924;29;20024;-87
2022/01/05 01:27:42;;;;;;;147.15;99.65;;;179.50;2252.80;;;;;;4916570;29;20024;-85
2022/01/05 01:30:09;;;;;;;156.70;99.00;;;179.30;2252.80;;;;;;4917770;29;20028;-84
2022/01/05 01:32:36;;;;;;;186.40;112.05;;;179.40;2252.80;;;;;;4916347;29;20083;-85
2022/01/05 01:35:03;;;;;;;156.50;102.90;;;179.40;2252.80;;;;;;4916629;29;20034;-85
2022/01/05 01:37:29;;;;;;;150.57;98.75;;;154.50;2252.80;;;;;;4916555;29;20475;-85
2022/01/05 01:39:55;;;;;;;164.43;104.20;;;154.50;2252.80;;;;;;4916307;29;20107;-86
2022/01/05 01:42:21;;;;;;;169.25;111.10;;;154.50;2252.80;;;;;;4916402;29;20028;-84
2022/01/05 01:44:46;;;;;;;168.60;106.75;;;179.20;2252.80;;;;;;4916308;29;20024;-85
2022/01/05 01:47:12;;;;;;;95.95;60.20;;;179.20;2252.80;;;;;;4917493;29;20055;-85
2022/01/05 01:49:38;;;;;;;121.53;76.30;;;179.40;2252.80;;;;;;4916567;29;20024;-84
2022/01/05 01:52:04;;;;;;;118.93;79.65;;;179.40;2252.80;;;;;;4920242;29;20039;-84
2022/01/05 01:54:30;;;;;;;159.25;102.20;;;179.40;2252.80;;;;;;4919897;29;20368;-88
2022/01/05 01:56:58;;;;;;;203.52;121.63;;;179.20;2252.80;;;;;;4919984;29;20024;-86
2022/01/05 01:59:25;;;;;;;181.60;113.07;;;154.50;2252.80;;;;;;4920177;29;20028;-84
2022/01/05 02:01:51;;;;;;;150.75;96.53;;;179.30;2252.80;;;;;;4919698;29;20028;-85
2022/01/05 02:04:17;;;;;;;149.80;94.53;;;154.50;2252.80;;;;;;4919822;29;20035;-85
2022/01/05 02:06:42;;;;;;;136.45;85.95;;;179.20;2252.80;;;;;;4919846;29;20043;-84
2022/01/05 02:09:08;;;;;;;128.05;79.45;;;179.30;2252.80;;;;;;4919817;29;20024;-84
2022/01/05 02:11:38;;;;;;;182.13;99.88;;;179.40;2252.80;;;;;;4920428;29;20092;-87
2022/01/05 02:14:04;;;;;;;152.50;82.95;;;179.40;2252.80;;;;;;4923093;29;20030;-85
2022/01/05 02:16:32;;;;;;;147.48;87.50;;;179.40;2252.80;;;;;;4939624;29;20451;-83
2022/01/05 02:18:59;;;;;;;115.03;66.63;;;179.40;2252.80;;;;;;4939839;29;20110;-86
2022/01/05 02:21:28;;;;;;;136.85;81.88;;;179.50;2252.80;;;;;;4922522;29;20411;-87
2022/01/05 02:23:54;;;;;;;118.30;74.90;;;179.50;2252.80;;;;;;4922756;29;20051;-85
2022/01/05 02:26:20;;;;;;;127.57;78.57;;;179.60;2252.80;;;;;;4922782;29;20055;-85
2022/01/05 02:28:47;;;;;;;141.98;90.40;;;179.60;2252.80;;;;;;4922485;29;20020;-83
2022/01/05 02:31:13;;;;;;;201.73;127.13;;;179.40;2252.80;;;;;;4922820;29;20087;-83
2022/01/05 02:33:40;;;;;;;206.93;122.82;;;179.40;2252.80;;;;;;4922436;29;20452;-85
2022/01/05 02:36:07;;;;;;;177.68;103.95;;;179.30;2252.80;;;;;;4922280;29;20028;-83
2022/01/05 02:38:33;;;;;;;139.05;84.47;;;179.30;2252.80;;;;;;4939339;29;20020;-86
2022/01/05 02:41:06;;;;;;;113.53;73.30;;;179.40;2252.80;;;;;;4922465;29;20032;-83
2022/01/05 02:43:32;;;;;;;121.97;75.15;;;179.20;2252.80;;;;;;4922522;29;20050;-85
2022/01/05 02:45:58;;;;;;;125.30;79.53;;;179.40;2252.80;;;;;;4922267;29;20035;-84
2022/01/05 02:48:24;;;;;;;121.70;74.68;;;179.40;2252.80;;;;;;4922170;29;20380;-83
2022/01/05 02:50:50;;;;;;;113.30;69.93;;;179.30;2252.80;;;;;;4922111;29;20034;-85
2022/01/05 02:53:15;;;;;;;193.82;103.50;;;179.40;2252.80;;;;;;4922380;29;20055;-85
2022/01/05 02:55:41;;;;;;;153.55;88.20;;;179.40;2252.80;;;;;;4938814;29;20353;-84
2022/01/05 02:58:07;;;;;;;144.52;85.05;;;179.30;2252.80;;;;;;4921988;29;20055;-84
2022/01/05 03:00:33;;;;;;;133.50;72.55;;;179.40;2252.80;;;;;;4922011;29;20023;-83
2022/01/05 03:02:59;;;;;;;105.20;60.75;;;179.30;2252.80;;;;;;4921324;29;20172;-85
2022/01/05 03:05:25;;;;;;;71.78;43.60;;;179.40;2252.80;;;;;;4921755;29;20464;-85
2022/01/05 03:07:51;;;;;;;60.85;40.63;;;179.40;2252.80;;;;;;4921761;29;20030;-84
2022/01/05 03:10:17;;;;;;;51.53;36.00;;;179.40;2252.80;;;;;;4921842;29;20024;-85
2022/01/05 03:12:44;;;;;;;43.17;28.90;;;179.40;2252.80;;;;;;4921611;29;20398;-83
2022/01/05 03:15:10;;;;;;;42.78;29.08;;;179.40;2252.80;;;;;;4921709;29;20059;-82
2022/01/05 03:17:36;;;;;;;38.78;26.15;;;179.50;2252.80;;;;;;4921335;29;20051;-85
2022/01/05 03:20:02;;;;;;;45.30;29.58;;;179.50;2252.80;;;;;;4921673;29;20456;-84
2022/01/05 03:22:28;;;;;;;32.45;22.70;;;179.60;2252.80;;;;;;4921465;29;20024;-85
2022/01/05 03:24:54;;;;;;;23.92;16.38;;;179.70;2252.80;;;;;;4921760;29;20063;-85
2022/01/05 03:27:20;;;;;;;25.98;17.55;;;179.80;2252.80;;;;;;4921482;29;20020;-86
2022/01/05 03:29:46;;;;;;;28.02;17.88;;;179.90;2252.80;;;;;;4921551;29;20023;-86
2022/01/05 03:32:11;;;;;;;28.95;19.42;;;179.90;2252.80;;;;;;4921328;29;20035;-83
2022/01/05 03:34:38;;;;;;;59.17;37.33;;;179.90;2252.80;;;;;;4921571;29;20050;-83
2022/01/05 03:37:04;;;;;;;66.68;41.95;;;179.80;2252.80;;;;;;4921677;29;20027;-85
2022/01/05 03:39:30;;;;;;;70.00;45.78;;;179.90;2252.80;;;;;;4921157;29;20034;-86
2022/01/05 03:41:56;;;;;;;70.15;44.22;;;179.70;2252.80;;;;;;4921604;29;20031;-85
2022/01/05 03:44:22;;;;;;;59.63;39.92;;;179.70;2252.80;;;;;;4921228;29;20368;-84
2022/01/05 03:46:48;;;;;;;47.58;32.83;;;179.70;2252.80;;;;;;4920968;29;20031;-85
2022/01/05 03:49:13;;;;;;;59.78;38.65;;;179.70;2252.80;;;;;;4921078;29;20027;-83
2022/01/05 03:51:39;;;;;;;59.88;41.22;;;179.70;2252.80;;;;;;4920852;29;20114;-84
2022/01/05 03:54:05;;;;;;;63.72;40.38;;;179.40;2252.80;;;;;;4920728;29;20052;-85
2022/01/05 03:56:31;;;;;;;56.10;38.80;;;179.50;2252.80;;;;;;4937722;29;20035;-86
2022/01/05 03:58:57;;;;;;;60.25;39.58;;;179.40;2252.80;;;;;;4920922;29;20486;-85
2022/01/05 04:01:22;;;;;;;54.88;35.63;;;179.30;2252.80;;;;;;4937864;29;20074;-82
2022/01/05 04:03:49;;;;;;;55.72;37.33;;;179.40;2252.80;;;;;;4920986;29;20028;-85
2022/01/05 04:06:14;;;;;;;59.50;40.35;;;179.40;2252.80;;;;;;4937732;29;20047;-80
2022/01/05 04:08:40;;;;;;;64.80;42.92;;;154.50;2252.80;;;;;;4920954;29;20047;-86
2022/01/05 04:11:06;;;;;;;61.55;40.05;;;179.20;2252.80;;;;;;4920747;29;20039;-85
2022/01/05 04:13:32;;;;;;;66.68;43.28;;;179.20;2252.80;;;;;;4920462;29;20055;-85
2022/01/05 04:15:58;;;;;;;66.35;45.88;;;179.20;2252.80;;;;;;4920807;29;20031;-83
2022/01/05 04:18:23;;;;;;;72.60;48.65;;;179.20;2252.80;;;;;;4920515;29;20404;-83
2022/01/05 04:20:49;;;;;;;84.97;57.20;;;179.30;2252.80;;;;;;4920533;29;20038;-84
2022/01/05 04:23:15;;;;;;;94.97;60.60;;;179.20;2252.80;;;;;;4920657;29;20075;-87
2022/01/05 04:25:41;;;;;;;88.88;59.55;;;154.50;2252.80;;;;;;4920611;29;20020;-85
2022/01/05 04:28:06;;;;;;;94.63;61.38;;;154.50;2252.80;;;;;;4920307;29;20047;-84
2022/01/05 04:30:32;;;;;;;97.00;61.97;;;154.30;2252.80;;;;;;4920362;29;20019;-84
2022/01/05 04:32:58;;;;;;;100.35;63.03;;;154.20;2252.80;;;;;;4943219;28;20019;-83
2022/01/05 04:35:24;;;;;;;109.97;69.43;;;154.20;2252.80;;;;;;4931622;29;20023;-83
2022/01/05 04:37:50;;;;;;;98.78;65.28;;;154.10;2252.80;;;;;;4920494;29;20046;-84
2022/01/05 04:40:16;;;;;;;101.13;69.13;;;154.10;2252.80;;;;;;4920380;29;20028;-83
2022/01/05 04:42:42;;;;;;;137.85;81.82;;;153.90;2252.80;;;;;;4919992;29;20452;-84
2022/01/05 04:45:08;;;;;;;127.18;77.43;;;154.10;2252.80;;;;;;4920471;29;20070;-83
2022/01/05 04:47:34;;;;;;;106.07;69.13;;;154.00;2252.80;;;;;;4937538;29;20078;-85
2022/01/05 04:50:00;;;;;;;93.80;61.17;;;154.00;2252.80;;;;;;4937269;29;20024;-83
2022/01/05 04:52:27;;;;;;;98.05;63.08;;;153.90;2252.80;;;;;;4919936;29;20056;-87
2022/01/05 04:54:53;;;;;;;88.05;58.67;;;154.00;2252.80;;;;;;4920156;29;20024;-85
2022/01/05 04:57:19;;;;;;;111.25;73.82;;;153.90;2252.80;;;;;;4937034;29;20034;-86
2022/01/05 04:59:44;;;;;;;117.68;79.80;;;153.90;2252.80;;;;;;4920139;29;20020;-83
2022/01/05 05:02:14;;;;;;;118.25;78.90;;;153.80;2252.80;;;;;;4920242;29;20058;-83
2022/01/05 05:04:40;;;;;;;116.15;77.82;;;153.90;2252.80;;;;;;4919992;29;20024;-84
2022/01/05 05:07:06;;;;;;;125.32;80.20;;;154.00;2252.80;;;;;;4920038;29;20031;-85
2022/01/05 05:09:32;;;;;;;115.47;77.15;;;153.70;2252.80;;;;;;4919982;29;20062;-83
2022/01/05 05:11:58;;;;;;;111.97;73.70;;;154.00;2252.80;;;;;;4919310;29;20051;-81
2022/01/05 05:14:24;;;;;;;137.75;81.13;;;153.80;2252.80;;;;;;4920060;29;20031;-86
2022/01/05 05:16:50;;;;;;;132.35;82.50;;;153.90;2252.80;;;;;;4936649;29;20495;-85
2022/01/05 05:19:16;;;;;;;117.22;78.55;;;153.90;2252.80;;;;;;4919974;29;20074;-82
2022/01/05 05:21:42;;;;;;;116.63;74.22;;;153.60;2252.80;;;;;;4936844;29;20103;-85
2022/01/05 05:24:10;;;;;;;122.57;77.68;;;153.70;2252.80;;;;;;4919906;29;20027;-84
2022/01/05 05:26:36;;;;;;;113.15;72.75;;;153.60;2252.80;;;;;;4923389;29;20023;-83
2022/01/05 05:29:01;;;;;;;120.85;78.35;;;128.90;2252.80;;;;;;4923681;29;20523;-85
2022/01/05 05:31:27;;;;;;;108.20;71.75;;;128.90;2252.80;;;;;;4923417;29;20042;-81
2022/01/05 05:33:53;;;;;;;193.77;106.55;;;153.60;2252.80;;;;;;4923673;29;20055;-82
2022/01/05 05:36:19;;;;;;;126.15;78.53;;;153.60;2252.80;;;;;;4923612;29;20576;-86
2022/01/05 05:38:45;;;;;;;296.80;143.77;;;128.80;2252.80;;;;;;4923309;29;20024;-83
2022/01/05 05:41:11;;;;;;;168.02;96.68;;;153.70;2252.80;;;;;;4923489;29;20444;-83
2022/01/05 05:43:36;;;;;;;120.50;74.75;;;153.70;2252.80;;;;;;4923300;29;20452;-83
2022/01/05 05:46:02;;;;;;;137.50;88.32;;;128.80;2252.80;;;;;;4923250;29;20030;-83
2022/01/05 05:48:28;;;;;;;148.70;92.03;;;128.70;2252.80;;;;;;4923331;29;20114;-83
2022/01/05 05:50:54;;;;;;;131.88;84.78;;;128.80;2252.80;;;;;;4923493;29;20031;-83
2022/01/05 05:53:20;;;;;;;109.88;74.80;;;128.90;2252.80;;;;;;4923308;29;20027;-84
2022/01/05 05:55:45;;;;;;;121.05;79.63;;;128.90;2252.80;;;;;;4923249;29;20023;-84
2022/01/05 05:58:11;;;;;;;146.25;97.22;;;128.90;2252.80;;;;;;4923488;29;20119;-83
2022/01/05 06:00:37;;;;;;;136.52;87.68;;;153.70;2252.80;;;;;;4923257;29;20024;-82
2022/01/05 06:03:03;;;;;;;133.38;86.28;;;128.90;2252.80;;;;;;4923112;29;20024;-81
2022/01/05 06:05:29;;;;;;;158.25;95.70;;;153.60;2252.80;;;;;;4940006;29;20376;-82
2022/01/05 06:07:55;;;;;;;136.48;89.95;;;153.60;2252.80;;;;;;4923067;29;20024;-81
2022/01/05 06:10:21;;;;;;;137.30;90.53;;;153.60;2252.80;;;;;;4923145;29;20134;-82
2022/01/05 06:12:46;;;;;;;168.32;110.65;;;128.80;2252.80;;;;;;4922115;29;20052;-83
2022/01/05 06:15:12;;;;;;;165.52;108.40;;;128.90;2252.80;;;;;;4939899;29;20028;-84
2022/01/05 06:17:38;;;;;;;190.95;127.03;;;128.90;2252.80;;;;;;4922981;29;20027;-82
2022/01/05 06:20:05;;;;;;;198.18;128.23;;;128.90;2252.80;;;;;;4922802;29;20371;-86
2022/01/05 06:22:32;;;;;;;244.65;160.40;;;128.90;2252.80;;;;;;4922956;29;20055;-83
2022/01/05 06:24:57;;;;;;;261.80;165.95;;;128.90;2252.80;;;;;;4922687;29;20032;-82
2022/01/05 06:27:23;;;;;;;291.33;185.05;;;128.80;2252.80;;;;;;4922519;29;20416;-82
2022/01/05 06:29:49;;;;;;;297.67;185.20;;;128.90;2252.80;;;;;;4922595;29;20024;-82
2022/01/05 06:32:15;;;;;;;284.92;183.45;;;128.90;2252.80;;;;;;4922024;29;20027;-80
2022/01/05 06:34:40;;;;;;;319.67;211.73;;;153.60;2252.80;;;;;;4922452;29;20111;-83
2022/01/05 06:37:06;;;;;;;285.48;182.93;;;153.60;2252.80;;;;;;4938710;29;20035;-82
2022/01/05 06:39:32;;;;;;;260.98;176.38;;;153.80;2252.80;;;;;;4922410;29;20020;-83
2022/01/05 06:41:58;;;;;;;272.23;181.60;;;153.80;2252.80;;;;;;4922422;29;20126;-83
2022/01/05 06:44:24;;;;;;;264.85;181.35;;;153.80;2252.80;;;;;;4922480;29;20023;-82
2022/01/05 06:46:50;;;;;;;253.25;170.32;;;153.80;2252.80;;;;;;4922458;29;20027;-85
2022/01/05 06:49:16;;;;;;;251.52;173.27;;;153.80;2252.80;;;;;;4939282;29;20459;-83
2022/01/05 06:51:41;;;;;;;248.43;162.20;;;153.70;2252.80;;;;;;4939222;29;20159;-86
2022/01/05 06:54:07;;;;;;;252.20;168.80;;;153.70;2252.80;;;;;;4922234;29;20115;-84
2022/01/05 06:56:34;;;;;;;236.40;159.18;;;153.80;2252.80;;;;;;4921992;29;20024;-84
2022/01/05 06:58:59;;;;;;;270.80;183.00;;;153.90;2252.80;;;;;;4922152;29;20039;-83
2022/01/05 07:01:25;;;;;;;274.73;177.07;;;153.80;2252.80;;;;;;4938807;29;20032;-84
2022/01/05 07:03:51;;;;;;;268.42;179.68;;;153.90;2252.80;;;;;;4922052;29;20051;-84
2022/01/05 07:06:17;;;;;;;262.30;175.55;;;153.90;2252.80;;;;;;4938902;29;20027;-82
2022/01/05 07:08:42;;;;;;;286.67;195.90;;;153.90;2252.80;;;;;;4921754;29;20439;-86
2022/01/05 07:11:08;;;;;;;260.85;174.98;;;154.00;2252.80;;;;;;4921715;29;20031;-85
2022/01/05 07:13:34;;;;;;;284.30;195.77;;;154.10;2252.80;;;;;;4921546;29;20051;-82
2022/01/05 07:16:00;;;;;;;269.98;184.82;;;154.10;2252.80;;;;;;4921930;29;20115;-86
2022/01/05 07:18:25;;;;;;;264.13;182.02;;;154.10;2252.80;;;;;;4921805;29;20523;-86
2022/01/05 07:20:51;;;;;;;324.88;226.40;;;154.30;2252.80;;;;;;4921776;29;20067;-84
2022/01/05 07:23:17;;;;;;;290.13;194.25;;;154.30;2252.80;;;;;;4921705;29;20064;-84
2022/01/05 07:25:43;;;;;;;272.30;183.88;;;154.40;2252.80;;;;;;4921530;29;20023;-84
2022/01/05 07:28:10;;;;;;;288.23;189.00;;;154.40;2252.80;;;;;;4921488;29;20024;-83
2022/01/05 07:30:36;;;;;;;324.85;215.93;;;154.50;2252.80;;;;;;4921402;29;20024;-84
2022/01/05 07:33:02;;;;;;;353.63;225.77;;;154.50;2252.80;;;;;;4921585;29;20052;-82
2022/01/05 07:35:28;;;;;;;308.75;204.65;;;179.20;2252.80;;;;;;4921676;29;20031;-83
2022/01/05 07:37:54;;;;;;;299.58;200.23;;;179.20;2252.80;;;;;;4938168;29;20030;-84
2022/01/05 07:40:20;;;;;;;305.95;206.65;;;179.40;2252.80;;;;;;4921357;29;20083;-83
2022/01/05 07:42:45;;;;;;;324.02;218.48;;;179.40;2252.80;;;;;;4938416;29;20055;-83
2022/01/05 07:45:11;;;;;;;299.10;200.32;;;179.50;2252.80;;;;;;4921225;29;20027;-85
2022/01/05 07:47:37;;;;;;;292.73;201.55;;;179.60;2252.80;;;;;;4928895;28;20051;-84
2022/01/05 07:50:06;;;;;;;242.25;162.77;;;179.70;2252.80;;;;;;4945590;28;20022;-85
2022/01/05 07:52:32;;;;;;;192.93;129.23;;;179.80;2252.80;;;;;;4924924;29;20027;-84
2022/01/05 07:54:59;;;;;;;178.13;117.53;;;180.00;2252.80;;;;;;4921239;29;20463;-83
2022/01/05 07:57:25;;;;;;;177.45;112.03;;;180.10;2252.80;;;;;;4920968;29;20078;-83
2022/01/05 07:59:51;;;;;;;155.10;94.38;;;204.80;2252.80;;;;;;4920977;29;20122;-83
2022/01/05 08:02:16;;;;;;;109.90;65.05;;;205.00;2252.80;;;;;;4920890;29;20039;-82
2022/01/05 08:04:46;;;;;;;84.45;52.03;;;205.20;2252.80;;;;;;4920609;29;20020;-81
2022/01/05 08:07:12;;;;;;;90.75;57.95;;;205.30;2252.80;;;;;;4937680;29;20523;-82
2022/01/05 08:09:38;;;;;;;81.50;56.55;;;205.40;2252.80;;;;;;4920889;29;20028;-83
2022/01/05 08:12:04;;;;;;;87.28;61.00;;;205.40;2252.80;;;;;;4937322;29;20083;-84
2022/01/05 08:14:30;;;;;;;85.10;61.05;;;205.50;2252.80;;;;;;4937602;29;20024;-84
2022/01/05 08:16:55;;;;;;;97.07;69.20;;;205.60;2252.80;;;;;;4920597;29;20416;-84
2022/01/05 08:19:21;;;;;;;120.50;84.05;;;205.70;2252.80;;;;;;4920609;29;20409;-83
2022/01/05 08:21:47;;;;;;;96.22;72.45;;;230.40;2252.80;;;;;;4937509;29;20035;-83
2022/01/05 08:24:13;;;;;;;105.32;79.10;;;230.50;2252.80;;;;;;4920565;29;20511;-81
2022/01/05 08:26:39;;;;;;;114.80;82.70;;;230.50;2252.80;;;;;;4920495;29;20023;-83
2022/01/05 08:29:04;;;;;;;99.43;71.07;;;230.60;2252.80;;;;;;4920537;29;20110;-83
2022/01/05 08:31:30;;;;;;;103.68;68.43;;;230.60;2252.80;;;;;;4920033;29;20024;-83
2022/01/05 08:33:59;;;;;;;91.35;59.10;;;230.70;2252.80;;;;;;4920068;29;20070;-83
2022/01/05 08:36:25;;;;;;;81.32;49.25;;;230.90;2252.80;;;;;;4920212;29;20020;-81
2022/01/05 08:38:51;;;;;;;75.75;48.75;;;231.00;2252.80;;;;;;4920287;29;20078;-83
2022/01/05 08:41:17;;;;;;;68.78;44.17;;;231.10;2252.80;;;;;;4920262;29;20479;-82
2022/01/05 08:43:43;;;;;;;55.05;38.20;;;231.20;2252.80;;;;;;4937086;29;20159;-83
2022/01/05 08:46:09;;;;;;;60.45;43.60;;;231.20;2252.80;;;;;;4920315;29;20031;-83
2022/01/05 08:48:36;;;;;;;55.17;40.35;;;231.30;2252.80;;;;;;4920000;29;20020;-83
2022/01/05 08:51:01;;;;;;;89.32;54.47;;;256.00;2252.80;;;;;;4920020;29;20028;-85
2022/01/05 08:53:27;;;;;;;62.58;41.10;;;256.10;2252.80;;;;;;4937124;29;20035;-84
2022/01/05 08:55:53;;;;;;;53.75;36.70;;;256.20;2252.80;;;;;;4920404;29;20026;-85
2022/01/05 08:58:20;;;;;;;53.00;41.33;;;256.20;2252.80;;;;;;4920104;29;20114;-84
2022/01/05 09:00:49;;;;;;;52.00;37.35;;;256.30;2252.80;;;;;;4919199;29;20486;-83
2022/01/05 09:03:16;;;;;;;70.55;43.88;;;256.40;2252.80;;;;;;4920181;29;20027;-84
2022/01/05 09:05:43;;;;;;;86.90;52.03;;;256.40;2252.80;;;;;;4937064;29;20455;-83
2022/01/05 09:08:09;;;;;;;77.13;49.70;;;256.50;2252.80;;;;;;4919872;29;20448;-84
2022/01/05 09:10:36;;;;;;;91.03;61.35;;;256.60;2252.80;;;;;;4937007;29;20055;-83
2022/01/05 09:13:02;;;;;;;62.72;44.03;;;256.60;2252.80;;;;;;4919748;29;20518;-85
2022/01/05 09:15:29;;;;;;;63.05;41.35;;;256.80;2252.80;;;;;;4919742;29;20028;-82
2022/01/05 09:17:57;;;;;;;73.63;44.78;;;256.90;2252.80;;;;;;4920013;29;20028;-85
2022/01/05 09:20:22;;;;;;;75.95;48.65;;;281.60;2278.40;;;;;;4920081;29;20123;-84
2022/01/05 09:22:48;;;;;;;87.60;49.33;;;281.70;2278.40;;;;;;4919650;29;20059;-82
2022/01/05 09:25:18;;;;;;;121.90;70.53;;;281.80;2278.40;;;;;;4919791;29;20031;-82
2022/01/05 09:27:44;;;;;;;102.78;65.43;;;282.00;2278.40;;;;;;4919632;29;20023;-81
2022/01/05 09:30:12;;;;;;;71.20;45.47;;;282.10;2278.40;;;;;;4936444;29;20020;-83
2022/01/05 09:32:39;;;;;;;30.10;21.73;;;282.20;2278.40;;;;;;4919161;29;20036;-81
2022/01/05 09:35:10;;;;;;;26.52;20.42;;;282.50;2278.40;;;;;;4919111;29;20099;-82
2022/01/05 09:37:48;;;;;;;30.05;20.02;;;307.30;2304.00;;;;;;4919413;29;20023;-81
2022/01/05 09:42:59;;;;;;;28.27;20.85;;;307.60;2304.00;;;;;;4936353;29;20379;-80
2022/01/05 09:45:28;;;;;;;38.47;27.45;;;307.70;2304.00;;;;;;4919435;29;20019;-79
2022/01/05 09:48:31;;;;;;;33.60;22.05;;;307.80;2304.00;;;;;;4919295;29;20024;-80
2022/01/05 09:51:12;;;;;;;25.08;14.95;;;332.80;2329.60;;;;;;4919160;29;20353;-79
2022/01/05 09:53:38;;;;;;;16.20;11.40;;;333.00;2329.60;;;;;;4919179;29;20027;-79
2022/01/05 09:56:06;;;;;;;24.50;17.70;;;333.20;2329.60;;;;;;4919368;29;20098;-79
2022/01/05 09:58:32;;;;;;;22.80;13.25;;;333.30;2329.60;;;;;;4919136;29;20372;-81
2022/01/05 10:00:59;;;;;;;18.70;13.23;;;333.40;2329.60;;;;;;4919418;29;20031;-78
2022/01/05 10:03:25;;;;;;;22.27;14.23;;;333.70;2329.60;;;;;;4936439;29;20108;-78
2022/01/05 10:05:51;;;;;;;20.38;13.50;;;358.40;2329.60;;;;;;4919502;29;20345;-79
2022/01/05 10:08:18;;;;;;;26.80;17.20;;;358.50;2329.60;;;;;;4919131;29;20030;-79
2022/01/05 10:10:44;;;;;;;32.63;25.00;;;358.50;2329.60;;;;;;4919155;29;20102;-80
2022/01/05 10:13:10;;;;;;;36.92;26.30;;;358.50;2329.60;;;;;;4922329;29;20079;-80
2022/01/05 10:15:36;;;;;;;27.70;15.38;;;358.60;2329.60;;;;;;4922661;29;20473;-78
2022/01/05 10:18:37;;;;;;;24.25;14.30;;;358.70;2329.60;;;;;;4922442;29;20031;-78
2022/01/05 10:21:06;;;;;;;18.13;10.90;;;358.90;2329.60;;;;;;4922551;29;20111;-77
2022/01/05 10:23:34;;;;;;;24.25;16.73;;;359.10;2329.60;;;;;;4922340;29;20110;-78
2022/01/05 10:26:29;;;;;;;25.00;19.02;;;359.10;2329.60;;;;;;4921859;29;20028;-78
2022/01/05 10:29:05;;;;;;;24.50;18.67;;;359.00;2329.60;;;;;;4922252;29;20030;-77
2022/01/05 10:31:37;;;;;;;31.35;17.58;;;359.00;2329.60;;;;;;4939029;29;20107;-79
2022/01/05 10:34:18;;;;;;;17.05;12.55;;;358.80;2329.60;;;;;;4939598;29;20024;-79
2022/01/05 10:36:58;;;;;;;18.70;15.70;;;358.90;2329.60;;;;;;4922151;29;20027;-79
2022/01/05 10:39:39;;;;;;;21.63;12.38;;;358.90;2329.60;;;;;;4922296;29;20023;-81
2022/01/05 10:42:10;;;;;;;22.73;12.85;;;359.00;2329.60;;;;;;4939046;29;20105;-82
2022/01/05 10:44:36;;;;;;;27.95;18.95;;;359.00;2329.60;;;;;;4939608;29;20032;-80
2022/01/05 10:47:05;;;;;;;24.33;16.10;;;359.00;2329.60;;;;;;4922012;29;20356;-80
2022/01/05 10:49:40;;;;;;;27.23;18.48;;;358.90;2329.60;;;;;;4922168;29;20487;-80
2022/01/05 10:52:24;;;;;;;20.38;15.40;;;359.00;2329.60;;;;;;4922133;29;20535;-81
2022/01/05 10:54:50;;;;;;;29.25;20.58;;;359.00;2329.60;;;;;;4939036;29;20460;-83
2022/01/05 10:57:18;;;;;;;19.30;14.32;;;359.00;2329.60;;;;;;4921954;29;20046;-81
2022/01/05 10:59:53;;;;;;;19.83;12.45;;;359.00;2329.60;;;;;;4921722;29;20111;-80
2022/01/05 11:02:30;;;;;;;36.58;30.55;;;359.00;2329.60;;;;;;4922061;29;20028;-79
2022/01/05 11:05:12;;;;;;;36.63;24.02;;;359.20;2329.60;;;;;;4938972;29;20106;-80
2022/01/05 11:07:41;;;;;;;47.35;32.28;;;359.10;2329.60;;;;;;4938599;29;20038;-84
2022/01/05 11:10:11;;;;;;;18.48;14.43;;;359.10;2329.60;;;;;;4921712;29;20031;-81
2022/01/05 11:12:46;;;;;;;24.60;15.73;;;359.00;2329.60;;;;;;4921639;29;20056;-80
2022/01/05 11:15:33;;;;;;;21.40;14.52;;;359.10;2329.60;;;;;;4921616;29;20027;-80
2022/01/05 11:18:19;;;;;;;21.73;15.70;;;359.10;2329.60;;;;;;4938606;29;20079;-80
2022/01/05 11:20:46;;;;;;;33.50;18.75;;;359.10;2329.60;;;;;;4921306;29;20022;-80
2022/01/05 11:23:13;;;;;;;25.00;16.55;;;359.10;2329.60;;;;;;4920946;29;20024;-80
2022/01/05 11:25:41;;;;;;;28.90;17.00;;;359.20;2329.60;;;;;;4921282;29;20464;-78
2022/01/05 11:28:08;;;;;;;21.58;12.95;;;359.20;2329.60;;;;;;4938043;29;20023;-81
2022/01/05 11:30:36;;;;;;;20.50;13.75;;;359.30;2329.60;;;;;;4921359;29;20055;-81
2022/01/05 11:33:03;;;;;;;20.00;11.38;;;384.10;2329.60;;;;;;4921289;29;20031;-77
2022/01/05 11:35:29;;;;;;;19.15;12.88;;;384.30;2329.60;;;;;;4921069;29;20034;-81
2022/01/05 11:37:55;;;;;;;22.55;14.70;;;384.40;2329.60;;;;;;4921151;29;20110;-80
2022/01/05 11:40:22;;;;;;;21.33;15.80;;;384.40;2329.60;;;;;;4921101;29;20058;-78
2022/01/05 11:42:50;;;;;;;22.35;16.45;;;384.50;2329.60;;;;;;4920973;29;20122;-79
2022/01/05 11:45:31;;;;;;;17.23;13.32;;;384.90;2329.60;;;;;;4921258;29;20023;-80
2022/01/05 11:48:31;;;;;;;22.40;15.02;;;410.10;2355.20;;;;;;4921050;29;20020;-80
2022/01/05 11:51:00;;;;;;;18.70;12.02;;;410.50;2355.20;;;;;;4920992;29;20024;-83
2022/01/05 11:53:42;;;;;;;19.70;12.65;;;435.50;2278.40;;;;;;4920982;29;20024;-83
2022/01/05 11:56:20;;;;;;;16.58;12.10;;;435.80;2227.20;;;;;;4920816;29;20031;-80